Time;durP1;ratioP1;P1;durP2;ratioP2;P2;SDS_P1;SDS_P2;PMS_P1;PMS_P2;Temp;Humidity;BMP_temperature;BMP_pressure;BME280_temperature;BME280_humidity;BME280_pressure;Samples;Min_cycle;Max_cycle;Signal;HPM_P1;HPM_P2
2022/12/23 00:01:26;;;;;;;;;;;;;;;;;;;;;
2022/12/23 00:04:38;;;;;;;;;;;;;;;;;;;;;
2022/12/23 00:08:08;;;;;;;717.00;412.95;;;6.40;99.90;;;;;;5050591;28;20139;-84
2022/12/23 00:11:24;;;;;;;698.05;352.75;;;6.40;99.90;;;;;;5049430;28;20057;-85
2022/12/23 00:18:06;;;;;;;710.60;352.85;;;5.70;99.90;;;;;;5017665;28;20053;-85
2022/12/23 00:21:22;;;;;;;;;;;;;;;;;;;;;
2022/12/23 00:24:22;;;;;;;;;;;6.40;99.90;;;;;;4998275;28;20129;-86
2022/12/23 00:27:40;;;;;;;;;;;;;;;;;;;;;
2022/12/23 00:30:54;;;;;;;742.42;364.90;;;6.40;99.90;;;;;;5031493;28;20052;-86
2022/12/23 00:34:12;;;;;;;;;;;;;;;;;;;;;
2022/12/23 00:37:22;;;;;;;;;;;;;;;;;;;;;
2022/12/23 00:44:16;;;;;;;751.10;413.10;;;6.40;99.90;;;;;;5053190;28;20630;-85
2022/12/23 00:49:40;;;;;;;776.70;421.50;;;6.50;99.90;;;;;;5111525;28;20052;-86
2022/12/23 00:50:58;;;;;;;687.85;350.95;;;6.50;99.90;;;;;;5092797;28;20047;-85
2022/12/23 00:54:16;;;;;;;727.47;359.70;;;6.50;99.90;;;;;;5092423;28;20044;-85
2022/12/23 00:57:34;;;;;;;770.67;411.05;;;6.10;99.90;;;;;;5092620;28;20046;-84
2022/12/23 01:07:32;;;;;;;;;;;;;;;;;;;;;
2022/12/23 01:10:22;;;;;;;873.37;413.30;;;6.80;99.90;;;;;;5085902;28;20046;-85
2022/12/23 01:13:20;;;;;;;813.53;388.43;;;6.40;99.90;;;;;;5078084;28;20036;-85
2022/12/23 01:16:40;;;;;;;941.23;418.87;;;6.50;99.90;;;;;;5093623;28;20055;-86
2022/12/23 01:19:54;;;;;;;881.17;406.37;;;6.50;99.90;;;;;;5094936;28;20386;-86
2022/12/23 01:23:08;;;;;;;;;;;;;;;;;;;;;
2022/12/23 01:26:36;;;;;;;831.78;383.02;;;6.50;99.90;;;;;;5096017;28;20123;-85
2022/12/23 01:29:49;;;;;;;970.33;431.60;;;6.60;99.90;;;;;;5094915;28;20097;-85
2022/12/23 01:32:58;;;;;;;;;;;;;;;;;;;;;
2022/12/23 01:36:20;;;;;;;;;;;;;;;;;;;;;
2022/12/23 01:39:52;;;;;;;;;;;;;;;;;;;;;
2022/12/23 01:43:05;;;;;;;;;;;;;;;;;;;;;
2022/12/23 01:46:42;;;;;;;1223.33;473.87;;;6.60;99.90;;;;;;5075510;28;20115;-85
2022/12/23 01:50:11;;;;;;;1134.77;464.70;;;6.60;99.90;;;;;;5093558;28;20088;-85
2022/12/23 01:53:30;;;;;;;1174.60;471.67;;;6.60;99.90;;;;;;5095558;28;20046;-85
2022/12/23 01:56:56;;;;;;;1132.67;459.90;;;6.60;99.90;;;;;;5095377;28;20052;-85
2022/12/23 02:09:58;;;;;;;996.43;424.00;;;6.50;99.90;;;;;;5024464;28;20053;-83
2022/12/23 02:13:18;;;;;;;1046.73;438.30;;;6.50;99.90;;;;;;5012351;28;20294;-85
2022/12/23 02:16:42;;;;;;;1045.67;440.33;;;6.50;99.90;;;;;;5013316;28;20054;-83
2022/12/23 02:20:39;;;;;;;1038.97;436.20;;;6.50;99.90;;;;;;5012108;28;20045;-85
2022/12/23 02:23:52;;;;;;;931.43;414.50;;;6.60;99.90;;;;;;4940813;29;20047;-84
2022/12/23 02:27:18;;;;;;;;;;;;;;;;;;;;;
2022/12/23 02:30:48;;;;;;;938.13;417.07;;;6.60;99.90;;;;;;4954255;29;20525;-85
2022/12/23 02:34:07;;;;;;;1017.53;433.17;;;6.50;99.90;;;;;;4953121;29;20090;-85
2022/12/23 02:37:10;;;;;;;935.27;413.97;;;6.50;99.90;;;;;;4970520;28;20530;-86
2022/12/23 02:40:22;;;;;;;;;;;;;;;;;;;;;
2022/12/23 02:44:02;;;;;;;;;;;;;;;;;;;;;
2022/12/23 02:47:22;;;;;;;;;;;;;;;;;;;;;
2022/12/23 02:50:58;;;;;;;;;;;;;;;;;;;;;
2022/12/23 02:54:26;;;;;;;1111.90;450.30;;;6.50;99.90;;;;;;4996413;28;20582;-85
2022/12/23 02:57:54;;;;;;;;;;;;;;;;;;;;;
2022/12/23 03:01:04;;;;;;;;;;;;;;;;;;;;;
2022/12/23 03:04:22;;;;;;;;;;;;;;;;;;;;;
2022/12/23 03:08:12;;;;;;;;;;;;;;;;;;;;;
2022/12/23 03:11:05;;;;;;;984.30;421.88;;;6.50;99.90;;;;;;5133846;27;20050;-86
2022/12/23 03:14:14;;;;;;;1138.43;454.52;;;6.50;99.90;;;;;;5133875;27;20050;-86
2022/12/23 03:17:31;;;;;;;1040.87;438.30;;;6.50;99.90;;;;;;5113846;28;20192;-85
2022/12/23 03:21:20;;;;;;;;;;;;;;;;;;;;;
2022/12/23 03:25:04;;;;;;;1048.43;437.63;;;6.50;99.90;;;;;;5113892;28;20048;-86
2022/12/23 03:28:26;;;;;;;1094.87;435.03;;;6.50;99.90;;;;;;5113543;28;20495;-85
2022/12/23 03:31:52;;;;;;;1029.83;432.73;;;6.50;99.90;;;;;;5112289;28;20056;-84
2022/12/23 03:34:51;;;;;;;1046.80;443.60;;;6.50;99.90;;;;;;5112030;28;20051;-84
2022/12/23 03:38:22;;;;;;;;;;;;;;;;;;;;;
2022/12/23 03:41:54;;;;;;;1034.93;431.17;;;6.50;99.90;;;;;;5113790;28;20132;-86
2022/12/23 03:45:12;;;;;;;1165.60;457.53;;;6.50;99.90;;;;;;5112305;28;20043;-85
2022/12/23 03:48:36;;;;;;;1046.57;442.40;;;6.50;99.90;;;;;;5093309;28;20040;-85
2022/12/23 03:52:05;;;;;;;;;;;;;;;;;;;;;
2022/12/23 03:55:24;;;;;;;1105.53;441.03;;;6.50;99.90;;;;;;5057631;28;20053;-84
2022/12/23 03:58:31;;;;;;;;;;;;;;;;;;;;;
2022/12/23 04:02:06;;;;;;;1078.90;433.17;;;6.50;99.90;;;;;;5109006;28;20103;-86
2022/12/23 04:05:36;;;;;;;1058.47;435.30;;;6.50;99.90;;;;;;5113468;28;20048;-83
2022/12/23 04:09:13;;;;;;;1094.00;434.40;;;6.40;99.90;;;;;;5112455;28;20149;-84
2022/12/23 04:12:22;;;;;;;1062.40;430.43;;;6.50;99.90;;;;;;5113550;28;20056;-84
2022/12/23 04:15:49;;;;;;;;;;;;;;;;;;;;;
2022/12/23 04:19:16;;;;;;;1047.17;429.23;;;6.50;99.90;;;;;;5112697;28;20043;-83
2022/12/23 04:22:42;;;;;;;;;;;;;;;;;;;;;
2022/12/23 04:26:18;;;;;;;;;;;;;;;;;;;;;
2022/12/23 04:29:46;;;;;;;;;;;;;;;;;;;;;
2022/12/23 04:33:24;;;;;;;;;;;;;;;;;;;;;
2022/12/23 04:36:58;;;;;;;;;;;;;;;;;;;;;
2022/12/23 04:40:24;;;;;;;737.45;363.73;;;6.40;99.90;;;;;;5070236;28;20095;-86
2022/12/23 04:43:56;;;;;;;1041.63;440.43;;;6.40;99.90;;;;;;5070672;28;20053;-84
2022/12/23 04:47:24;;;;;;;;;;;;;;;;;;;;;
2022/12/23 04:50:48;;;;;;;1032.83;436.40;;;6.40;99.90;;;;;;5074579;28;20052;-85
2022/12/23 04:54:06;;;;;;;;;;;;;;;;;;;;;
2022/12/23 04:57:36;;;;;;;;;;;;;;;;;;;;;
2022/12/23 05:00:50;;;;;;;1205.67;459.80;;;6.30;99.90;;;;;;5116770;28;20044;-87
2022/12/23 05:03:34;;;;;;;1207.30;461.67;;;6.30;99.90;;;;;;5064082;28;20091;-85
2022/12/23 05:06:36;;;;;;;1226.73;505.63;;;6.30;99.90;;;;;;5115752;28;20392;-85
2022/12/23 05:09:56;;;;;;;1232.07;514.70;;;6.20;99.90;;;;;;5116030;28;20044;-86
2022/12/23 05:13:24;;;;;;;1208.60;504.07;;;6.20;99.90;;;;;;5116440;28;20050;-85
2022/12/23 05:16:36;;;;;;;1213.00;509.37;;;6.20;99.90;;;;;;5116390;28;20051;-86
2022/12/23 05:19:33;;;;;;;1222.77;507.27;;;6.10;99.90;;;;;;5116899;28;20076;-86
2022/12/23 05:22:46;;;;;;;1201.07;462.67;;;6.10;99.90;;;;;;5115994;28;20127;-86
2022/12/23 05:26:10;;;;;;;1201.63;458.52;;;6.10;99.90;;;;;;5116687;28;20050;-86
2022/12/23 05:29:34;;;;;;;;;;;;;;;;;;;;;
2022/12/23 05:32:46;;;;;;;;;;;;;;;;;;;;;
2022/12/23 05:36:04;;;;;;;;;;;;;;;;;;;;;
2022/12/23 05:39:04;;;;;;;1234.87;507.43;;;6.10;99.90;;;;;;5095438;28;20055;-84
2022/12/23 05:42:16;;;;;;;;;;;;;;;;;;;;;
2022/12/23 05:45:40;;;;;;;1194.80;451.50;;;6.00;99.90;;;;;;5115883;28;20048;-83
2022/12/23 05:48:54;;;;;;;;;;;;;;;;;;;;;
2022/12/23 05:52:26;;;;;;;1212.22;505.63;;;5.90;99.90;;;;;;5112119;28;20519;-84
2022/12/23 05:55:56;;;;;;;1201.40;503.50;;;6.00;99.90;;;;;;5115877;28;20048;-84
2022/12/23 05:59:16;;;;;;;;;;;;;;;;;;;;;
2022/12/23 06:02:40;;;;;;;;;;;;;;;;;;;;;
2022/12/23 06:05:58;;;;;;;;;;;;;;;;;;;;;
2022/12/23 06:09:29;;;;;;;;;;;;;;;;;;;;;
2022/12/23 06:12:58;;;;;;;;;;;;;;;;;;;;;
2022/12/23 06:16:33;;;;;;;;;;;;;;;;;;;;;
2022/12/23 06:19:47;;;;;;;1208.70;520.10;;;5.80;99.90;;;;;;5113975;28;20288;-85
2022/12/23 06:22:58;;;;;;;;;;;;;;;;;;;;;
2022/12/23 06:26:34;;;;;;;1188.40;502.20;;;5.80;99.90;;;;;;5114943;28;20126;-86
2022/12/23 06:29:56;;;;;;;1215.97;514.80;;;5.70;99.90;;;;;;5096850;28;20138;-85
2022/12/23 06:33:08;;;;;;;1176.97;447.50;;;5.70;99.90;;;;;;5113818;28;20070;-85
2022/12/23 06:36:18;;;;;;;1187.97;444.13;;;5.60;99.90;;;;;;5052400;28;20099;-86
2022/12/23 06:39:50;;;;;;;;;;;;;;;;;;;;;
2022/12/23 06:43:17;;;;;;;;;;;;;;;;;;;;;
2022/12/23 06:46:38;;;;;;;;;;;;;;;;;;;;;
2022/12/23 06:50:12;;;;;;;;;;;;;;;;;;;;;
2022/12/23 06:53:22;;;;;;;1197.90;446.80;;;5.90;99.90;;;;;;4976204;28;20053;-85
2022/12/23 06:56:46;;;;;;;1221.70;441.80;;;5.60;99.90;;;;;;4990991;28;20050;-87
2022/12/23 07:00:04;;;;;;;1234.47;502.27;;;5.50;99.90;;;;;;4992461;28;20117;-87
2022/12/23 07:03:16;;;;;;;;;;;;;;;;;;;;;
2022/12/23 07:06:17;;;;;;;1180.77;503.80;;;5.60;99.90;;;;;;4996508;28;20089;-87
2022/12/23 07:09:32;;;;;;;1177.60;497.07;;;5.60;99.90;;;;;;5012164;28;20126;-86
2022/12/23 07:12:56;;;;;;;1199.87;458.03;;;5.60;99.90;;;;;;5012060;28;20050;-86
2022/12/23 07:16:10;;;;;;;1177.20;443.03;;;5.90;99.90;;;;;;5011718;28;20056;-86
2022/12/23 07:19:07;;;;;;;1182.27;494.93;;;5.60;99.90;;;;;;4995264;28;20363;-86
2022/12/23 07:22:22;;;;;;;1185.97;498.60;;;5.60;99.90;;;;;;5013492;28;20120;-86
2022/12/23 07:25:40;;;;;;;1148.60;433.83;;;5.60;99.90;;;;;;5014838;28;20127;-86
2022/12/23 07:29:04;;;;;;;1167.03;495.07;;;5.60;99.90;;;;;;5071003;28;20045;-85
2022/12/23 07:32:26;;;;;;;;;;;;;;;;;;;;;
2022/12/23 07:35:48;;;;;;;;;;;;;;;;;;;;;
2022/12/23 07:39:06;;;;;;;1168.30;498.03;;;5.70;99.90;;;;;;5071229;28;20074;-86
2022/12/23 07:41:45;;;;;;;1173.23;497.90;;;5.60;99.90;;;;;;5037033;28;20509;-87
2022/12/23 07:45:00;;;;;;;1169.67;495.73;;;5.70;99.90;;;;;;5051014;28;20053;-86
2022/12/23 07:48:16;;;;;;;;;;;;;;;;;;;;;
2022/12/23 07:51:07;;;;;;;1165.45;499.23;;;6.00;99.90;;;;;;5014151;28;20060;-86
2022/12/23 07:54:02;;;;;;;1158.07;499.23;;;5.70;99.90;;;;;;5014379;28;20501;-87
2022/12/23 07:56:54;;;;;;;1136.63;444.00;;;5.70;99.90;;;;;;5045890;28;20402;-87
2022/12/23 07:59:36;;;;;;;1144.13;506.50;;;5.70;99.90;;;;;;5050743;28;20045;-86
2022/12/23 08:02:23;;;;;;;1139.17;501.60;;;6.70;99.90;;;;;;5052365;28;20118;-86
2022/12/23 08:05:04;;;;;;;1148.97;499.37;;;5.70;99.90;;;;;;5069637;28;20258;-87
2022/12/23 08:07:58;;;;;;;1134.50;441.37;;;6.40;99.90;;;;;;5069675;28;20060;-89
2022/12/23 08:10:47;;;;;;;1143.00;497.83;;;5.80;99.90;;;;;;5062822;28;20179;-86
2022/12/23 08:13:32;;;;;;;1145.87;496.23;;;5.80;99.90;;;;;;5034870;28;20049;-87
2022/12/23 08:16:32;;;;;;;1145.17;497.47;;;5.70;99.90;;;;;;5050940;28;20065;-87
2022/12/23 08:19:13;;;;;;;1129.43;443.23;;;5.80;99.90;;;;;;5064151;28;20087;-87
2022/12/23 08:22:04;;;;;;;1130.80;437.40;;;5.80;99.90;;;;;;5078604;28;20534;-85
2022/12/23 08:24:56;;;;;;;1124.47;435.27;;;5.80;99.90;;;;;;5096995;28;20044;-89
2022/12/23 08:27:53;;;;;;;1116.50;438.03;;;6.00;99.90;;;;;;5096146;28;20085;-85
2022/12/23 08:31:05;;;;;;;1124.03;436.00;;;5.80;99.90;;;;;;5096767;28;20048;-85
2022/12/23 08:34:09;;;;;;;1125.90;432.77;;;5.90;99.90;;;;;;5097060;28;20127;-83
2022/12/23 08:37:16;;;;;;;;;;;;;;;;;;;;;
2022/12/23 08:40:26;;;;;;;;;;;;;;;;;;;;;
2022/12/23 08:43:09;;;;;;;1134.47;435.47;;;5.80;99.90;;;;;;5095722;28;20062;-85
2022/12/23 08:46:11;;;;;;;775.93;377.53;;;6.50;99.90;;;;;;5096642;28;20102;-86
2022/12/23 08:49:07;;;;;;;736.45;361.10;;;5.70;99.90;;;;;;5076520;28;20044;-85
2022/12/23 08:52:32;;;;;;;850.63;395.90;;;5.70;99.90;;;;;;5096871;28;20079;-86
2022/12/23 08:55:13;;;;;;;;;;;5.70;99.90;;;;;;5096265;28;20052;-84
2022/12/23 08:58:08;;;;;;;974.70;404.53;;;5.70;99.90;;;;;;5091098;28;19920;-84
2022/12/23 09:01:08;;;;;;;1049.37;452.77;;;5.60;99.90;;;;;;5044412;28;20088;-86
2022/12/23 09:04:19;;;;;;;;;;;;;;;;;;;;;
2022/12/23 09:07:24;;;;;;;1147.30;490.33;;;5.90;99.90;;;;;;5094846;28;20071;-84
2022/12/23 09:10:29;;;;;;;;;;;;;;;;;;;;;
2022/12/23 09:13:05;;;;;;;1174.03;449.10;;;5.70;99.90;;;;;;5098216;28;20062;-85
2022/12/23 09:15:55;;;;;;;1185.27;498.27;;;5.70;99.90;;;;;;5116304;28;20039;-83
2022/12/23 09:19:06;;;;;;;;;;;;;;;;;;;;;
2022/12/23 09:21:53;;;;;;;1151.90;480.43;;;5.80;99.90;;;;;;5116538;28;20055;-83
2022/12/23 09:24:48;;;;;;;1163.97;488.30;;;5.80;99.90;;;;;;5112996;28;20564;-83
2022/12/23 09:27:46;;;;;;;;;;;;;;;;;;;;;
2022/12/23 09:30:50;;;;;;;1183.00;445.63;;;5.90;99.90;;;;;;5115874;28;20083;-83
2022/12/23 09:33:58;;;;;;;;;;;;;;;;;;;;;
2022/12/23 09:36:53;;;;;;;1204.93;503.97;;;6.00;99.90;;;;;;5080218;28;20126;-84
2022/12/23 09:39:47;;;;;;;1182.97;456.77;;;6.00;99.90;;;;;;5110429;28;20500;-84
2022/12/23 09:42:54;;;;;;;1201.43;503.80;;;6.00;99.90;;;;;;5114995;28;20419;-84
2022/12/23 09:46:13;;;;;;;1180.67;446.63;;;5.20;99.90;;;;;;5115233;28;20101;-84
2022/12/23 09:49:31;;;;;;;1186.47;509.57;;;6.00;99.90;;;;;;5097430;28;20466;-83
2022/12/23 09:52:32;;;;;;;1179.63;447.77;;;6.10;99.90;;;;;;5114678;28;20048;-84
2022/12/23 09:55:58;;;;;;;1168.57;442.67;;;6.10;99.90;;;;;;5097128;28;20051;-84
2022/12/23 09:59:10;;;;;;;1178.77;493.57;;;6.20;99.90;;;;;;5032837;28;20057;-84
2022/12/23 10:02:14;;;;;;;1175.17;496.83;;;6.20;99.90;;;;;;5016560;28;20115;-85
2022/12/23 10:05:27;;;;;;;;;;;;;;;;;;;;;
2022/12/23 10:08:46;;;;;;;;;;;;;;;;;;;;;
2022/12/23 10:12:12;;;;;;;;;;;;;;;;;;;;;
2022/12/23 10:14:55;;;;;;;830.60;385.23;;;6.10;99.90;;;;;;5015960;28;20171;-85
2022/12/23 10:17:54;;;;;;;751.63;359.13;;;5.40;99.90;;;;;;5032534;28;20091;-85
2022/12/23 10:21:01;;;;;;;884.87;391.00;;;6.20;99.90;;;;;;5032424;28;20057;-85
2022/12/23 10:24:04;;;;;;;830.90;390.33;;;7.20;99.90;;;;;;5014451;28;20061;-84
2022/12/23 10:27:03;;;;;;;852.33;389.67;;;6.20;99.90;;;;;;5015861;28;20045;-84
2022/12/23 10:30:12;;;;;;;872.53;390.43;;;6.20;99.90;;;;;;5031360;28;20103;-85
2022/12/23 10:33:08;;;;;;;926.07;403.47;;;6.20;99.90;;;;;;5055490;28;20091;-84
2022/12/23 10:36:42;;;;;;;;;;;;;;;;;;;;;
2022/12/23 10:39:56;;;;;;;992.10;416.87;;;6.40;99.90;;;;;;5013037;28;20443;-85
2022/12/23 10:42:56;;;;;;;1202.87;466.00;;;6.40;99.90;;;;;;5076151;28;20056;-85
2022/12/23 10:46:19;;;;;;;1110.77;443.33;;;6.40;99.90;;;;;;5094384;28;20051;-84
2022/12/23 10:49:54;;;;;;;1065.97;445.43;;;6.50;99.90;;;;;;5093925;28;20131;-84
2022/12/23 10:53:09;;;;;;;;;;;;;;;;;;;;;
2022/12/23 10:56:08;;;;;;;1209.00;452.13;;;6.50;99.90;;;;;;5093832;28;20055;-86
2022/12/23 10:59:12;;;;;;;;;;;;;;;;;;;;;
2022/12/23 11:02:16;;;;;;;1013.87;419.67;;;6.50;99.90;;;;;;5092675;28;20036;-85
2022/12/23 11:05:25;;;;;;;965.90;428.17;;;6.70;99.90;;;;;;5074525;28;20040;-85
2022/12/23 11:08:36;;;;;;;928.87;424.97;;;6.60;99.90;;;;;;5091560;28;20044;-85
2022/12/23 11:11:38;;;;;;;852.67;385.73;;;6.60;99.90;;;;;;5100260;28;20092;-85
2022/12/23 11:15:03;;;;;;;838.93;386.17;;;6.70;99.90;;;;;;5071223;28;20040;-85
2022/12/23 11:18:01;;;;;;;884.83;402.73;;;6.40;99.90;;;;;;5054809;28;20509;-85
2022/12/23 11:21:02;;;;;;;930.37;409.07;;;6.70;99.90;;;;;;5070106;28;20166;-86
2022/12/23 11:24:24;;;;;;;;;;;;;;;;;;;;;
2022/12/23 11:27:17;;;;;;;;;;;;;;;;;;;;;
2022/12/23 11:30:18;;;;;;;1081.83;449.87;;;6.80;99.90;;;;;;5069848;28;20477;-82
2022/12/23 11:33:02;;;;;;;1090.43;448.90;;;6.80;99.90;;;;;;5071482;28;20084;-84
2022/12/23 11:36:23;;;;;;;994.47;421.07;;;6.80;99.90;;;;;;5071138;28;20580;-86
2022/12/23 11:39:20;;;;;;;1053.63;440.80;;;6.90;99.90;;;;;;5070144;28;20040;-83
2022/12/23 11:42:11;;;;;;;1141.03;461.37;;;6.90;99.90;;;;;;5067805;28;20520;-83
2022/12/23 11:45:07;;;;;;;1144.33;450.23;;;6.90;99.90;;;;;;5092640;27;20058;-83
2022/12/23 11:48:26;;;;;;;1171.37;475.93;;;6.90;99.90;;;;;;5134501;27;20047;-85
2022/12/23 11:51:27;;;;;;;1187.40;474.80;;;6.90;99.90;;;;;;5133833;27;20043;-84
2022/12/23 11:54:48;;;;;;;1162.77;469.27;;;6.90;99.90;;;;;;5134410;27;20050;-85
2022/12/23 11:57:50;;;;;;;1233.07;470.07;;;7.00;99.90;;;;;;5104363;27;20058;-86
2022/12/23 12:01:00;;;;;;;;;;;;;;;;;;;;;
2022/12/23 12:03:51;;;;;;;1232.30;474.63;;;7.00;99.90;;;;;;5133957;27;20530;-87
2022/12/23 12:06:48;;;;;;;1197.10;483.27;;;7.00;99.90;;;;;;5133369;27;20122;-85
2022/12/23 12:09:47;;;;;;;1229.97;469.33;;;7.00;99.90;;;;;;5115137;27;20047;-87
2022/12/23 12:12:24;;;;;;;;;;;7.00;99.90;;;;;;5131011;27;20245;-87
2022/12/23 12:15:21;;;;;;;1230.87;498.40;;;7.00;99.90;;;;;;5115684;28;19923;-87
2022/12/23 12:18:08;;;;;;;1228.50;466.33;;;7.00;99.90;;;;;;5132993;28;20491;-87
2022/12/23 12:21:16;;;;;;;;;;;;;;;;;;;;;
2022/12/23 12:24:21;;;;;;;;;;;;;;;;;;;;;
2022/12/23 12:27:06;;;;;;;1205.00;453.50;;;7.00;99.90;;;;;;5132342;28;20044;-85
2022/12/23 12:30:04;;;;;;;1230.43;513.33;;;7.00;99.90;;;;;;5133945;28;20057;-86
2022/12/23 12:33:12;;;;;;;1229.10;506.90;;;7.30;99.90;;;;;;5090992;28;20052;-87
2022/12/23 12:36:52;;;;;;;1197.57;461.47;;;6.90;99.90;;;;;;5090712;28;20519;-82
2022/12/23 12:39:47;;;;;;;1233.87;504.50;;;7.00;99.90;;;;;;5069042;28;20095;-88
2022/12/23 12:42:51;;;;;;;1231.10;504.97;;;7.00;99.90;;;;;;5069634;28;20053;-84
2022/12/23 12:45:49;;;;;;;;;;;;;;;;;;;;;
2022/12/23 12:49:12;;;;;;;;;;;;;;;;;;;;;
2022/12/23 12:52:48;;;;;;;1192.00;456.30;;;7.00;99.90;;;;;;5030317;28;20049;-84
2022/12/23 12:56:08;;;;;;;1203.57;504.30;;;7.00;99.90;;;;;;5030258;28;20049;-83
2022/12/23 12:59:02;;;;;;;1211.80;501.43;;;7.00;99.90;;;;;;5013762;28;20173;-85
2022/12/23 13:02:25;;;;;;;1185.90;449.27;;;7.00;99.90;;;;;;5029140;28;20092;-86
2022/12/23 13:05:58;;;;;;;;;;;;;;;;;;;;;
2022/12/23 13:09:33;;;;;;;1221.65;507.38;;;7.00;99.90;;;;;;5073667;28;20089;-85
2022/12/23 13:12:48;;;;;;;1194.07;455.10;;;6.90;99.90;;;;;;4994411;28;20047;-84
2022/12/23 13:15:28;;;;;;;1222.20;510.27;;;7.00;99.90;;;;;;4993917;28;20137;-83
2022/12/23 13:18:32;;;;;;;1216.37;512.93;;;7.00;99.90;;;;;;4994825;28;20045;-83
2022/12/23 13:21:36;;;;;;;;;;;6.90;99.90;;;;;;4993500;28;20055;-85
2022/12/23 13:24:46;;;;;;;;;;;;;;;;;;;;;
2022/12/23 13:27:33;;;;;;;1189.27;453.13;;;7.00;99.90;;;;;;5033107;28;20064;-83
2022/12/23 13:30:11;;;;;;;1216.33;506.33;;;7.00;99.90;;;;;;5024596;28;20058;-85
2022/12/23 13:33:31;;;;;;;1205.73;504.23;;;7.00;99.90;;;;;;5009745;28;20136;-85
2022/12/23 13:36:13;;;;;;;1198.77;502.87;;;7.00;99.90;;;;;;4993603;28;20430;-83
2022/12/23 13:39:07;;;;;;;1176.00;456.47;;;7.00;99.90;;;;;;4992436;28;20113;-82
2022/12/23 13:41:50;;;;;;;1211.63;507.00;;;7.00;99.90;;;;;;4987831;28;20064;-84
2022/12/23 13:44:20;;;;;;;1180.90;459.90;;;7.00;99.90;;;;;;5036502;28;20052;-84
2022/12/23 13:47:06;;;;;;;1177.67;450.67;;;7.00;99.90;;;;;;5053412;28;20053;-85
2022/12/23 13:49:55;;;;;;;1204.67;509.40;;;7.00;99.90;;;;;;5061748;28;20468;-86
2022/12/23 13:52:47;;;;;;;1180.53;455.67;;;6.90;99.90;;;;;;5069923;28;20139;-85
2022/12/23 13:55:53;;;;;;;1215.63;514.90;;;7.00;99.90;;;;;;5076955;28;20068;-85
2022/12/23 13:58:23;;;;;;;1187.77;461.43;;;7.00;99.90;;;;;;5076748;28;20048;-86
2022/12/23 14:01:08;;;;;;;1176.13;456.63;;;7.00;99.90;;;;;;5074972;28;20554;-84
2022/12/23 14:03:40;;;;;;;1186.37;508.97;;;7.00;99.90;;;;;;5086586;28;20091;-83
2022/12/23 14:06:26;;;;;;;1169.13;452.90;;;6.90;99.90;;;;;;5085392;28;20338;-87
2022/12/23 14:08:54;;;;;;;1196.27;511.67;;;6.90;99.90;;;;;;5094089;28;20097;-87
2022/12/23 14:11:29;;;;;;;1186.87;506.13;;;6.90;99.90;;;;;;5094646;28;20044;-83
2022/12/23 14:14:07;;;;;;;1193.80;505.63;;;6.90;99.90;;;;;;5095130;28;20051;-81
2022/12/23 14:17:01;;;;;;;1193.93;509.63;;;7.00;99.90;;;;;;5094149;28;20044;-85
2022/12/23 14:19:41;;;;;;;1193.33;509.17;;;6.90;99.90;;;;;;5093628;28;20101;-83
2022/12/23 14:22:35;;;;;;;1205.03;512.03;;;6.90;99.90;;;;;;5095051;28;20058;-83
2022/12/23 14:25:39;;;;;;;1208.47;515.70;;;6.90;99.90;;;;;;5097156;28;20044;-84
2022/12/23 14:28:35;;;;;;;1203.43;516.33;;;6.90;99.90;;;;;;5114812;28;20047;-84
2022/12/23 14:31:04;;;;;;;1177.10;453.30;;;6.80;99.90;;;;;;5110967;28;20079;-83
2022/12/23 14:33:46;;;;;;;1192.20;502.83;;;6.80;99.90;;;;;;5110208;28;20103;-84
2022/12/23 14:36:24;;;;;;;1197.07;503.67;;;6.80;99.90;;;;;;5100888;28;20480;-83
2022/12/23 14:39:11;;;;;;;1177.13;508.10;;;6.80;99.90;;;;;;5114210;28;20396;-85
2022/12/23 14:41:50;;;;;;;1165.40;505.77;;;6.80;99.90;;;;;;5114352;28;20101;-84
2022/12/23 14:44:25;;;;;;;1158.03;509.83;;;6.80;99.90;;;;;;5114739;28;20039;-85
2022/12/23 14:46:57;;;;;;;1154.97;462.20;;;6.80;99.90;;;;;;5114717;28;20039;-85
2022/12/23 14:49:40;;;;;;;1181.85;508.90;;;6.70;99.90;;;;;;5114594;28;20104;-84
2022/12/23 14:52:47;;;;;;;1189.50;509.97;;;6.70;99.90;;;;;;5118037;28;20035;-86
2022/12/23 14:55:29;;;;;;;1149.97;449.27;;;6.70;99.90;;;;;;5117510;28;20035;-86
2022/12/23 14:58:00;;;;;;;1154.20;448.73;;;6.70;99.90;;;;;;5112468;28;20054;-85
2022/12/23 15:01:08;;;;;;;;;;;;;;;;;;;;;
2022/12/23 15:03:48;;;;;;;1151.33;441.33;;;6.70;99.90;;;;;;5074157;28;20493;-85
2022/12/23 15:07:06;;;;;;;;;;;;;;;;;;;;;
2022/12/23 15:10:24;;;;;;;1160.00;503.60;;;6.70;99.90;;;;;;5114183;28;20503;-84
2022/12/23 15:13:56;;;;;;;;;;;;;;;;;;;;;
2022/12/23 15:17:30;;;;;;;;;;;;;;;;;;;;;
2022/12/23 15:20:24;;;;;;;1141.70;441.07;;;6.70;99.90;;;;;;5047849;28;20128;-83
2022/12/23 15:22:51;;;;;;;1125.97;439.08;;;6.70;99.90;;;;;;5051454;28;20063;-83
2022/12/23 15:25:28;;;;;;;1146.87;500.77;;;6.70;99.90;;;;;;5051345;28;20064;-82
2022/12/23 15:28:03;;;;;;;1149.37;501.53;;;6.70;99.90;;;;;;5050488;28;20402;-83
2022/12/23 15:30:33;;;;;;;;;;;6.70;99.90;;;;;;5051136;28;20052;-86
2022/12/23 15:33:09;;;;;;;1171.93;504.13;;;6.70;99.90;;;;;;5044783;28;20062;-84
2022/12/23 15:35:39;;;;;;;1151.38;501.55;;;6.70;99.90;;;;;;5014605;28;20045;-84
2022/12/23 15:38:05;;;;;;;1156.83;452.37;;;6.70;99.90;;;;;;5031466;28;20077;-85
2022/12/23 15:40:36;;;;;;;1145.70;501.63;;;6.70;99.90;;;;;;5015107;28;20200;-84
2022/12/23 15:43:22;;;;;;;1166.77;505.47;;;7.30;99.90;;;;;;5049667;28;20056;-86
2022/12/23 15:45:52;;;;;;;1144.00;449.60;;;6.70;99.90;;;;;;5045638;28;20561;-84
2022/12/23 15:48:27;;;;;;;1144.20;506.53;;;6.60;99.90;;;;;;5070995;28;20047;-85
2022/12/23 15:51:22;;;;;;;1147.35;500.52;;;6.60;99.90;;;;;;5106454;27;20059;-86
2022/12/23 15:53:55;;;;;;;1135.03;447.50;;;6.60;99.90;;;;;;5132341;27;20156;-84
2022/12/23 15:56:31;;;;;;;1148.67;505.93;;;6.60;99.90;;;;;;5134299;27;20395;-86
2022/12/23 15:59:05;;;;;;;1144.70;502.40;;;6.60;99.90;;;;;;5132943;27;20039;-85
2022/12/23 16:01:42;;;;;;;1143.53;508.33;;;6.60;99.90;;;;;;5116429;28;20047;-86
2022/12/23 16:04:21;;;;;;;1121.50;443.53;;;6.60;99.90;;;;;;5133554;27;20448;-86
2022/12/23 16:06:53;;;;;;;1126.77;498.23;;;6.60;99.90;;;;;;5133820;27;20153;-85
2022/12/23 16:09:28;;;;;;;1115.47;435.73;;;6.70;99.90;;;;;;5134039;27;20050;-85
2022/12/23 16:12:03;;;;;;;1081.22;438.63;;;6.50;99.90;;;;;;5132969;27;20055;-84
2022/12/23 16:14:38;;;;;;;1023.67;433.07;;;6.50;99.90;;;;;;5114610;28;20047;-84
2022/12/23 16:17:17;;;;;;;1025.07;502.93;;;6.50;99.90;;;;;;5133984;27;20050;-86
2022/12/23 16:19:54;;;;;;;;;;;6.50;99.90;;;;;;5114885;28;20480;-86
2022/12/23 16:22:35;;;;;;;1081.53;498.47;;;6.50;99.90;;;;;;5113234;28;19927;-84
2022/12/23 16:25:21;;;;;;;1075.57;495.27;;;6.40;99.90;;;;;;5128138;28;20066;-85
2022/12/23 16:27:57;;;;;;;1079.03;502.53;;;6.50;99.90;;;;;;5133417;28;20043;-83
2022/12/23 16:30:34;;;;;;;1077.53;430.37;;;6.50;99.90;;;;;;5133264;28;20047;-82
2022/12/23 16:33:03;;;;;;;1080.88;502.23;;;6.50;99.90;;;;;;5115880;28;20039;-86
2022/12/23 16:35:37;;;;;;;1085.07;508.10;;;6.50;99.90;;;;;;5132348;28;20039;-83
2022/12/23 16:38:12;;;;;;;1076.87;434.13;;;6.50;99.90;;;;;;5133799;27;20050;-86
2022/12/23 16:40:55;;;;;;;1105.87;499.70;;;7.30;99.90;;;;;;5138045;27;20031;-87
2022/12/23 16:43:31;;;;;;;1083.93;434.67;;;6.00;99.90;;;;;;5137733;27;20042;-87
2022/12/23 16:46:00;;;;;;;1095.47;503.27;;;6.50;99.90;;;;;;5119101;27;20596;-85
2022/12/23 16:48:33;;;;;;;1086.27;501.30;;;6.50;99.90;;;;;;5119811;27;20043;-86
2022/12/23 16:51:04;;;;;;;;;;;6.50;99.90;;;;;;5108456;28;20039;-86
2022/12/23 16:53:30;;;;;;;1063.77;502.47;;;6.40;99.90;;;;;;5137144;27;19958;-84
2022/12/23 16:55:56;;;;;;;1071.90;433.77;;;6.50;99.90;;;;;;5137199;27;20059;-86
2022/12/23 16:58:22;;;;;;;1099.37;500.13;;;6.40;99.90;;;;;;5118809;27;20039;-86
2022/12/23 17:00:48;;;;;;;1114.30;498.43;;;6.40;99.90;;;;;;5119245;27;20537;-85
2022/12/23 17:03:18;;;;;;;1116.67;438.93;;;6.40;99.90;;;;;;5136488;27;20039;-82
2022/12/23 17:05:46;;;;;;;1098.87;435.70;;;6.40;99.90;;;;;;5119114;27;20083;-84
2022/12/23 17:08:13;;;;;;;1077.23;434.90;;;6.40;99.90;;;;;;5102088;28;20456;-83
2022/12/23 17:10:43;;;;;;;1089.10;442.93;;;6.70;99.90;;;;;;5116653;28;20399;-85
2022/12/23 17:13:15;;;;;;;1175.20;456.30;;;6.40;99.90;;;;;;5116718;28;20485;-87
2022/12/23 17:15:41;;;;;;;1178.10;453.37;;;6.40;99.90;;;;;;5116667;28;20048;-84
2022/12/23 17:18:16;;;;;;;1182.10;461.93;;;6.40;99.90;;;;;;5109321;27;20453;-87
2022/12/23 17:20:44;;;;;;;;;;;6.40;99.90;;;;;;5115473;28;20496;-87
2022/12/23 17:24:00;;;;;;;;;;;;;;;;;;;;;
2022/12/23 17:27:26;;;;;;;1192.07;456.17;;;6.40;99.90;;;;;;5116754;28;20048;-88
2022/12/23 17:30:44;;;;;;;;;;;;;;;;;;;;;
2022/12/23 17:33:58;;;;;;;1197.97;498.00;;;6.40;99.90;;;;;;5135376;27;20043;-88
2022/12/23 17:37:22;;;;;;;;;;;;;;;;;;;;;
2022/12/23 17:40:54;;;;;;;1186.57;498.60;;;6.40;99.90;;;;;;5137117;27;20055;-89
2022/12/23 17:44:08;;;;;;;;;;;;;;;;;;;;;
2022/12/23 17:47:28;;;;;;;1183.53;499.80;;;6.30;99.90;;;;;;5137392;27;20035;-92